• °C
  • Pobieranie danych...
wx

PRINT OUT SECTION, show »

METAR EPCE 271500Z VRB01KT 9999 FEW011 OVC033 01/01
Q0995 RMK 011 097 8/1=

METAR EPDA 271500Z 12004KT 9999 BKN048 03/01
Q0995 RMK 026 090 7/7=

METAR EPDE 271500Z 22004KT 9999 BKN020 02/M01 Q0997 RMK 020 079 7/7=

METAR EPIR 271500Z AUTO 10002KT VV010 02/01 Q0995 RMK 019 092 ///=

METAR EPKS 271500Z NIL=

METAR EPLK 271500Z 17006KT 5000 BR OVC005 00/00 Q0996 RMK
001 100 8/8=

METAR EPLY 271500Z AUTO 20006KT 175V241 VV005 00/M01 Q0996 RMK 004
093 ///=

METAR EPMB 271500Z NIL=

METAR EPMI 271500Z 13006KT 9999 BKN100 01/M01 Q0994 RMK 009 087 6/6=

METAR EPMM 271500Z NIL=

METAR EPNA 271500Z NIL=

METAR EPOK 271500Z NIL=

METAR EPPR 271500Z 26004KT 5000 BR BKN039 02/01 Q0996 RMK 022 093
7/7=

METAR EPPW 271500Z NIL=

METAR EPRA 271500Z 29002KT 9999 BKN017 02/M01 Q0997 RMK 019 082 6/6=

METAR EPSN 271500Z 12006KT 9999 BKN080 01/M01 Q0994 RMK 010 087 7/7=

METAR EPTM 271500Z VRB02KT 8000 BKN006 01/00 Q0997 RMK 007 095 7/7=
 METAR EPLK
Lokalizacja:EPLK Łask
Czas:15:00 UTC
Średni kierunek wiatru:170 °
Średnia prędkość wiatru:6 węzłów
Widzialność:5000 metrów
Zjawisko:zamglenie
Pierwsza warstwa chmur:8/8, wysokość podstawy 500 FT
Temperatura powietrza:0 °C
Temperatura punktu rosy:0 °C
Ciśnienie QNH:996 hPa
Dokładna temperatura powietrza:0,1 °C
Dokładna wilgotność względna:100 %
Zachmurzenie przez wszystkie piętra chmur:8/8
Zachmurzenie przez chmury niskie:8/8



IMGW-PIB Sites